createdAt,value
2017-09-01T00:01:07.849Z,8.98
2017-09-01T00:03:36.144Z,9.40
2017-09-01T00:06:04.431Z,8.32
2017-09-01T00:08:32.684Z,8.40
2017-09-01T00:11:00.926Z,8.57
2017-09-01T00:13:29.290Z,8.32
2017-09-01T00:15:57.540Z,9.32
2017-09-01T00:18:25.817Z,10.35
2017-09-01T00:20:54.057Z,9.77
2017-09-01T00:23:22.309Z,9.82
2017-09-01T00:25:50.618Z,9.13
2017-09-01T00:28:18.873Z,9.55
2017-09-01T00:30:47.140Z,10.00
2017-09-01T00:33:15.541Z,10.55
2017-09-01T00:35:43.796Z,10.68
2017-09-01T00:38:12.063Z,10.57
2017-09-01T00:40:40.320Z,9.68
2017-09-01T00:43:08.609Z,10.98
2017-09-01T00:45:36.858Z,10.80
2017-09-01T00:48:05.126Z,11.20
2017-09-01T00:50:33.516Z,11.50
2017-09-01T00:53:01.781Z,11.90
2017-09-01T00:55:30.109Z,11.65
2017-09-01T00:57:58.367Z,10.80
2017-09-01T01:00:26.638Z,12.10
2017-09-01T01:02:54.925Z,11.88
2017-09-01T01:05:23.170Z,11.95
2017-09-01T01:07:51.583Z,11.15
2017-09-01T01:10:19.834Z,12.75
2017-09-01T01:12:48.103Z,11.75
2017-09-01T01:15:16.377Z,12.35
2017-09-01T01:17:44.636Z,13.30
2017-09-01T01:20:13.045Z,12.70
2017-09-01T01:22:41.302Z,12.88
2017-09-01T01:25:09.554Z,13.30
2017-09-01T01:27:37.949Z,13.40
2017-09-01T01:30:06.202Z,13.35
2017-09-01T01:32:34.492Z,13.38
2017-09-01T01:35:02.759Z,13.00
2017-09-01T01:37:31.024Z,13.20
2017-09-01T01:39:59.316Z,13.07
2017-09-01T01:42:27.575Z,12.80
2017-09-01T01:44:55.976Z,14.75
2017-09-01T01:47:24.262Z,14.52
2017-09-01T01:49:52.512Z,13.57
2017-09-01T01:52:20.799Z,13.38
2017-09-01T01:54:49.071Z,13.90
2017-09-01T01:57:17.313Z,15.05
2017-09-01T01:59:45.697Z,13.80
2017-09-01T02:02:14.016Z,14.30
2017-09-01T02:04:42.292Z,15.43
2017-09-01T02:07:10.559Z,13.65
2017-09-01T02:09:38.822Z,15.25
2017-09-01T02:12:07.099Z,15.32
2017-09-01T02:14:35.389Z,14.85
2017-09-01T02:17:03.650Z,15.43
2017-09-01T02:19:31.919Z,16.42
2017-09-01T02:22:00.308Z,15.40
2017-09-01T02:24:28.596Z,16.05
2017-09-01T02:26:56.896Z,16.02
2017-09-01T02:29:25.180Z,14.63
2017-09-01T02:31:53.489Z,14.32
2017-09-01T02:34:21.760Z,15.10
2017-09-01T02:36:50.034Z,15.00
2017-09-01T02:39:18.440Z,15.82
2017-09-01T02:41:46.731Z,15.98
2017-09-01T02:44:15.033Z,15.10
2017-09-01T02:46:43.311Z,15.00
2017-09-01T02:49:11.831Z,15.10
2017-09-01T02:51:40.148Z,15.25
2017-09-01T02:54:08.440Z,15.50
2017-09-01T02:56:36.751Z,13.73
2017-09-01T02:59:05.040Z,14.63
2017-09-01T03:01:34.550Z,15.50
2017-09-01T03:04:02.796Z,14.25
2017-09-01T03:06:31.067Z,15.15
2017-09-01T03:08:59.374Z,15.43
2017-09-01T03:11:27.643Z,17.50
2017-09-01T03:13:55.938Z,15.10
2017-09-01T03:16:25.780Z,15.50
2017-09-01T03:18:54.093Z,12.80
2017-09-01T03:21:22.386Z,13.18
2017-09-01T03:23:51.428Z,13.57
2017-09-01T03:26:19.734Z,14.00
2017-09-01T03:28:48.344Z,13.70
2017-09-01T03:31:16.632Z,15.68
2017-09-01T03:33:45.046Z,16.85
2017-09-01T03:36:13.330Z,15.38
2017-09-01T03:38:41.618Z,15.43
2017-09-01T03:41:09.916Z,14.63
2017-09-01T03:43:38.446Z,13.23
2017-09-01T03:46:07.065Z,14.27
2017-09-01T03:48:35.613Z,13.27
2017-09-01T03:51:04.046Z,15.27
2017-09-01T03:53:32.327Z,14.55
2017-09-01T03:56:01.398Z,16.45
2017-09-01T03:58:30.138Z,14.80
2017-09-01T04:00:58.445Z,16.65
2017-09-01T04:03:26.739Z,15.07
2017-09-01T04:05:55.012Z,15.82
2017-09-01T04:08:23.300Z,15.00
2017-09-01T04:10:51.685Z,15.77
2017-09-01T04:13:19.958Z,18.15
2017-09-01T04:15:48.258Z,16.62
2017-09-01T04:18:16.843Z,15.93
2017-09-01T04:20:45.141Z,15.75
2017-09-01T04:23:13.430Z,16.95
2017-09-01T04:25:41.699Z,16.25
2017-09-01T04:28:10.101Z,15.77
2017-09-01T04:30:38.370Z,15.95
2017-09-01T04:33:06.669Z,15.07
2017-09-01T04:35:34.938Z,15.13
2017-09-01T04:38:03.208Z,15.70
2017-09-01T04:40:31.806Z,13.88
2017-09-01T04:43:00.149Z,14.45
2017-09-01T04:45:28.728Z,14.43
2017-09-01T04:47:57.013Z,13.70
2017-09-01T04:50:32.472Z,12.05
2017-09-01T04:53:00.947Z,11.50
2017-09-01T04:55:29.268Z,9.68
2017-09-01T04:57:57.555Z,11.40
2017-09-01T05:00:25.842Z,11.23
2017-09-01T05:02:54.148Z,11.88
2017-09-01T05:05:22.435Z,12.40
2017-09-01T05:07:50.716Z,12.30
2017-09-01T05:10:19.133Z,13.68
2017-09-01T05:12:47.451Z,13.80
2017-09-01T05:15:16.514Z,12.45
2017-09-01T05:17:44.794Z,12.25
2017-09-01T05:20:13.120Z,11.45
2017-09-01T05:22:41.393Z,13.30
2017-09-01T05:25:09.773Z,11.88
2017-09-01T05:27:38.021Z,12.70
2017-09-01T05:30:06.323Z,14.65
2017-09-01T05:32:34.569Z,13.52
2017-09-01T05:35:02.814Z,13.45
2017-09-01T05:37:31.099Z,13.10
2017-09-01T05:39:59.350Z,13.77
2017-09-01T05:42:27.671Z,14.68
2017-09-01T05:44:55.955Z,13.80
2017-09-01T05:47:24.271Z,15.05
2017-09-01T05:49:52.556Z,15.00
2017-09-01T05:52:20.855Z,15.25
2017-09-01T05:54:49.157Z,15.65
2017-09-01T05:57:18.047Z,15.75
2017-09-01T05:59:46.441Z,16.23
2017-09-01T06:02:14.710Z,16.37
2017-09-01T06:04:43.546Z,16.87
2017-09-01T06:07:11.851Z,15.35
2017-09-01T06:09:40.155Z,16.17
2017-09-01T06:12:08.453Z,16.77
2017-09-01T06:14:36.788Z,17.62
2017-09-01T06:17:05.308Z,17.60
2017-09-01T06:19:33.756Z,19.42
2017-09-01T06:22:03.033Z,18.90
2017-09-01T06:24:32.572Z,18.20
2017-09-01T06:27:01.799Z,18.35
2017-09-01T06:29:30.190Z,17.70
2017-09-01T06:31:59.609Z,19.95
2017-09-01T06:34:28.962Z,19.45
2017-09-01T06:36:57.231Z,18.30
2017-09-01T06:39:25.535Z,17.60
2017-09-01T06:41:53.927Z,18.42
2017-09-01T06:44:22.314Z,16.70
2017-09-01T06:46:51.468Z,18.92
2017-09-01T06:49:19.824Z,17.80
2017-09-01T06:51:48.479Z,18.08
2017-09-01T06:54:17.010Z,18.52
2017-09-01T06:56:46.795Z,18.70
2017-09-01T06:59:18.893Z,17.75
2017-09-01T07:01:50.079Z,18.42
2017-09-01T07:04:21.757Z,18.23
2017-09-01T07:06:50.766Z,18.17
2017-09-01T07:09:19.031Z,18.90
2017-09-01T07:11:48.162Z,19.08
2017-09-01T07:14:16.418Z,17.65
2017-09-01T07:16:44.657Z,18.35
2017-09-01T07:19:12.940Z,17.90
2017-09-01T07:21:41.305Z,18.30
2017-09-01T07:24:10.422Z,19.62
2017-09-01T07:26:39.469Z,18.87
2017-09-01T07:29:07.883Z,18.80
2017-09-01T07:31:36.222Z,16.67
2017-09-01T07:34:05.282Z,18.50
2017-09-01T07:36:33.658Z,18.85
2017-09-01T07:39:02.079Z,20.37
2017-09-01T07:41:31.089Z,17.55
2017-09-01T07:43:59.372Z,17.15
2017-09-01T07:46:27.639Z,18.45
2017-09-01T07:48:55.957Z,18.50
2017-09-01T07:51:24.214Z,18.27
2017-09-01T07:53:52.493Z,18.67
2017-09-01T07:56:21.505Z,19.60
2017-09-01T07:58:49.758Z,18.85
2017-09-01T08:01:18.023Z,18.20
2017-09-01T08:03:46.353Z,18.70
2017-09-01T08:06:14.605Z,19.02
2017-09-01T08:08:42.876Z,17.73
2017-09-01T08:11:11.162Z,18.33
2017-09-01T08:13:39.402Z,21.17
2017-09-01T08:16:07.732Z,18.10
2017-09-01T08:18:35.970Z,19.23
2017-09-01T08:21:04.249Z,20.92
2017-09-01T08:23:32.675Z,19.05
2017-09-01T08:26:00.921Z,20.55
2017-09-01T08:28:29.198Z,17.42
2017-09-01T08:30:57.437Z,19.87
2017-09-01T08:33:25.745Z,19.02
2017-09-01T08:35:54.019Z,17.95
2017-09-01T08:38:23.270Z,19.80
2017-09-01T08:40:53.967Z,16.33
2017-09-01T08:43:22.227Z,17.87
2017-09-01T08:45:50.483Z,18.95
2017-09-01T08:48:18.773Z,16.55
2017-09-01T08:50:47.019Z,17.95
2017-09-01T08:53:15.398Z,16.75
2017-09-01T08:55:43.651Z,18.40
2017-09-01T08:58:12.721Z,17.33
2017-09-01T09:00:40.983Z,14.32
2017-09-01T09:03:09.992Z,15.95
2017-09-01T09:05:38.269Z,15.95
2017-09-01T09:08:06.401Z,15.85
2017-09-01T09:10:34.542Z,16.20
2017-09-01T09:13:02.824Z,15.98
2017-09-01T09:15:30.993Z,14.00
2017-09-01T09:17:59.173Z,13.82
2017-09-01T09:20:27.310Z,13.77
2017-09-01T09:22:55.445Z,11.48
2017-09-01T09:25:23.617Z,11.93
2017-09-01T09:27:51.752Z,11.82
2017-09-01T09:30:19.894Z,11.63
2017-09-01T09:32:48.171Z,11.80
2017-09-01T09:35:16.314Z,13.75
2017-09-01T09:37:44.568Z,12.65
2017-09-01T09:40:12.805Z,12.00
2017-09-01T09:42:40.962Z,13.82
2017-09-01T09:45:09.174Z,14.05
2017-09-01T09:47:38.227Z,13.75
2017-09-01T09:50:06.364Z,12.02
2017-09-01T09:52:34.665Z,10.98
2017-09-01T09:55:02.833Z,12.10
2017-09-01T09:57:30.992Z,12.20
2017-09-01T09:59:59.131Z,12.35
2017-09-01T10:02:27.269Z,12.18
2017-09-01T10:04:56.308Z,12.68
2017-09-01T10:07:24.450Z,13.68
2017-09-01T10:09:52.744Z,14.32
2017-09-01T10:12:20.981Z,13.15
2017-09-01T10:14:49.149Z,13.25
2017-09-01T10:17:17.512Z,12.88
2017-09-01T10:19:45.865Z,12.02
2017-09-01T10:22:14.000Z,13.15
2017-09-01T10:24:42.184Z,12.75
2017-09-01T10:27:11.287Z,11.65
2017-09-01T10:29:39.617Z,12.18
2017-09-01T10:32:07.830Z,12.57
2017-09-01T10:34:36.060Z,11.32
2017-09-01T10:37:04.253Z,12.93
2017-09-01T10:39:32.516Z,12.32
2017-09-01T10:42:00.727Z,11.55
2017-09-01T10:44:28.880Z,10.05
2017-09-01T10:46:57.074Z,9.63
2017-09-01T10:49:25.404Z,9.43
2017-09-01T10:51:53.636Z,8.13
2017-09-01T10:54:21.798Z,7.70
2017-09-01T10:56:49.924Z,7.45
2017-09-01T10:59:18.056Z,7.72
2017-09-01T11:01:46.232Z,7.07
2017-09-01T11:04:14.372Z,8.40
2017-09-01T11:06:42.508Z,8.50
2017-09-01T11:09:11.008Z,8.52
2017-09-01T11:11:39.181Z,7.30
2017-09-01T11:14:07.309Z,7.55
2017-09-01T11:16:35.482Z,7.93
2017-09-01T11:19:03.606Z,7.10
2017-09-01T11:21:31.743Z,8.23
2017-09-01T11:23:59.946Z,7.78
2017-09-01T11:26:28.068Z,8.05
2017-09-01T11:28:56.224Z,8.18
2017-09-01T11:31:24.377Z,7.90
2017-09-01T11:33:52.545Z,7.15
2017-09-01T11:36:20.683Z,7.10
2017-09-01T11:38:48.956Z,8.00
2017-09-01T11:41:17.082Z,7.43
2017-09-01T11:43:45.208Z,8.38
2017-09-01T11:46:13.389Z,7.25
2017-09-01T11:48:41.505Z,7.90
2017-09-01T11:51:09.627Z,8.43
2017-09-01T11:53:37.784Z,7.12
2017-09-01T11:56:06.677Z,8.15
2017-09-01T11:58:34.982Z,8.15
2017-09-01T12:01:04.402Z,7.32
2017-09-01T12:03:32.520Z,6.87
2017-09-01T12:06:00.679Z,7.28
2017-09-01T12:08:28.812Z,6.47
2017-09-01T12:10:56.982Z,7.20
2017-09-01T12:13:25.104Z,6.82
2017-09-01T12:15:53.261Z,6.85
2017-09-01T12:18:21.533Z,6.78
2017-09-01T12:20:49.660Z,6.40
2017-09-01T12:23:17.833Z,7.40
2017-09-01T12:25:45.969Z,6.70
2017-09-01T12:28:14.106Z,6.75
2017-09-01T12:30:42.281Z,6.72
2017-09-01T12:33:10.425Z,6.22
2017-09-01T12:35:38.557Z,7.28
2017-09-01T12:38:06.805Z,7.05
2017-09-01T12:40:34.946Z,7.50
2017-09-01T12:43:03.102Z,7.55
2017-09-01T12:45:31.224Z,7.25
2017-09-01T12:47:59.384Z,7.70
2017-09-01T12:50:27.547Z,7.20
2017-09-01T12:52:55.815Z,7.97
2017-09-01T12:55:23.945Z,6.78
2017-09-01T12:57:52.103Z,6.18
2017-09-01T13:00:20.260Z,5.60
2017-09-01T13:02:48.400Z,6.40
2017-09-01T13:05:16.545Z,6.00
2017-09-01T13:07:44.673Z,6.22
2017-09-01T13:10:12.977Z,4.68
2017-09-01T13:12:41.114Z,4.97
2017-09-01T13:15:09.234Z,5.40
2017-09-01T13:17:37.416Z,6.22
2017-09-01T13:20:05.539Z,5.57
2017-09-01T13:22:33.663Z,5.00
2017-09-01T13:25:01.826Z,5.20
2017-09-01T13:27:29.984Z,4.80
2017-09-01T13:29:58.276Z,5.37
2017-09-01T13:32:26.413Z,5.20
2017-09-01T13:34:54.585Z,4.43
2017-09-01T13:37:22.729Z,4.80
2017-09-01T13:39:50.852Z,5.00
2017-09-01T13:42:19.136Z,4.82
2017-09-01T13:44:48.057Z,4.10
2017-09-01T13:47:16.195Z,4.40
2017-09-01T13:49:44.352Z,4.80
2017-09-01T13:52:12.501Z,4.65
2017-09-01T13:54:40.633Z,4.30
2017-09-01T13:57:08.825Z,4.35
2017-09-01T13:59:36.952Z,4.90
2017-09-01T14:02:05.214Z,4.90
2017-09-01T14:04:33.365Z,4.15
2017-09-01T14:07:01.532Z,4.20
2017-09-01T14:09:29.687Z,4.40
2017-09-01T14:11:57.837Z,4.28
2017-09-01T14:14:25.970Z,4.68
2017-09-01T14:16:54.240Z,4.60
2017-09-01T14:19:22.383Z,4.60
2017-09-01T14:21:50.573Z,5.15
2017-09-01T14:24:18.712Z,4.47
2017-09-01T14:26:46.880Z,5.60
2017-09-01T14:29:15.646Z,4.95
2017-09-01T14:31:43.837Z,5.07
2017-09-01T14:34:11.996Z,5.10
2017-09-01T14:36:40.127Z,5.53
2017-09-01T14:39:08.403Z,5.57
2017-09-01T14:41:36.537Z,5.85
2017-09-01T14:44:04.727Z,4.07
2017-09-01T14:46:32.845Z,4.47
2017-09-01T14:49:00.984Z,3.62
2017-09-01T14:51:29.126Z,4.53
2017-09-01T14:53:58.037Z,4.75
2017-09-01T14:56:26.313Z,4.45
2017-09-01T14:58:54.457Z,4.55
2017-09-01T15:01:22.742Z,4.97
2017-09-01T15:03:50.868Z,4.65
2017-09-01T15:06:19.051Z,4.40
2017-09-01T15:08:47.160Z,5.10
2017-09-01T15:11:15.289Z,4.47
2017-09-01T15:13:44.781Z,4.30
2017-09-01T15:16:12.910Z,4.15
2017-09-01T15:18:41.038Z,4.05
2017-09-01T15:21:09.246Z,4.43
2017-09-01T15:23:37.361Z,4.40
2017-09-01T15:26:05.515Z,4.15
2017-09-01T15:28:33.645Z,3.97
2017-09-01T15:31:04.471Z,4.22
2017-09-01T15:33:32.596Z,4.53
2017-09-01T15:36:00.732Z,3.95
2017-09-01T15:38:29.010Z,4.22
2017-09-01T15:40:57.142Z,4.12
2017-09-01T15:43:25.265Z,3.85
2017-09-01T15:45:53.438Z,4.32
2017-09-01T15:48:21.554Z,3.90
2017-09-01T15:50:49.823Z,3.80
2017-09-01T15:53:17.953Z,4.43
2017-09-01T15:55:46.128Z,4.15
2017-09-01T15:58:15.030Z,4.03
2017-09-01T16:00:43.280Z,3.80
2017-09-01T16:03:11.436Z,3.60
2017-09-01T16:05:39.577Z,4.60
2017-09-01T16:08:07.873Z,4.43
2017-09-01T16:10:36.035Z,4.20
2017-09-01T16:13:04.156Z,3.85
2017-09-01T16:15:32.325Z,4.35
2017-09-01T16:18:00.481Z,4.55
2017-09-01T16:20:28.629Z,3.87
2017-09-01T16:22:56.761Z,3.95
2017-09-01T16:25:25.041Z,3.87
2017-09-01T16:27:53.197Z,4.40
2017-09-01T16:30:21.393Z,4.80
2017-09-01T16:32:49.548Z,4.57
2017-09-01T16:35:17.690Z,5.78
2017-09-01T16:37:45.826Z,5.47
2017-09-01T16:40:14.108Z,6.57
2017-09-01T16:42:43.471Z,6.45
2017-09-01T16:45:11.612Z,7.47
2017-09-01T16:47:39.754Z,7.60
2017-09-01T16:50:07.922Z,7.18
2017-09-01T16:52:36.057Z,5.03
2017-09-01T16:55:04.209Z,5.10
2017-09-01T16:57:32.498Z,4.75
2017-09-01T17:00:00.626Z,4.90
2017-09-01T17:02:28.792Z,5.20
2017-09-01T17:04:56.929Z,5.22
2017-09-01T17:07:25.213Z,5.87
2017-09-01T17:09:53.394Z,5.47
2017-09-01T17:12:21.733Z,6.12
2017-09-01T17:14:49.903Z,6.00
2017-09-01T17:17:18.033Z,5.50
2017-09-01T17:19:46.204Z,6.70
2017-09-01T17:22:14.493Z,6.00
2017-09-01T17:24:42.629Z,6.35
2017-09-01T17:27:10.781Z,6.30
2017-09-01T17:29:39.046Z,7.07
2017-09-01T17:32:07.196Z,7.65
2017-09-01T17:34:36.137Z,7.47
2017-09-01T17:37:04.280Z,6.72
2017-09-01T17:39:32.458Z,6.47
2017-09-01T17:42:00.603Z,6.07
2017-09-01T17:44:28.750Z,6.07
2017-09-01T17:46:57.047Z,7.03
2017-09-01T17:49:25.171Z,6.90
2017-09-01T17:51:54.560Z,7.03
2017-09-01T17:54:22.705Z,6.65
2017-09-01T17:56:50.849Z,7.15
2017-09-01T17:59:19.012Z,6.65
2017-09-01T18:01:47.171Z,6.25
2017-09-01T18:04:15.477Z,6.70
2017-09-01T18:06:43.616Z,8.07
2017-09-01T18:09:11.746Z,8.40
2017-09-01T18:11:39.937Z,12.93
2017-09-01T18:14:08.110Z,12.00
2017-09-01T18:16:36.255Z,10.20
2017-09-01T18:19:04.441Z,10.57
2017-09-01T18:21:32.596Z,8.90
2017-09-01T18:24:04.590Z,8.43
2017-09-01T18:26:39.653Z,8.13
2017-09-01T18:29:08.093Z,7.15
2017-09-01T18:31:40.151Z,7.43
2017-09-01T18:34:10.394Z,6.40
2017-09-01T18:36:41.497Z,6.70
2017-09-01T18:39:09.787Z,6.93
2017-09-01T18:41:38.767Z,6.75
2017-09-01T18:44:07.039Z,6.97
2017-09-01T18:46:35.700Z,5.90
2017-09-01T18:49:04.093Z,6.80
2017-09-01T18:51:32.262Z,7.05
2017-09-01T18:54:00.803Z,5.80
2017-09-01T18:56:38.238Z,5.75
2017-09-01T18:59:06.587Z,6.45
2017-09-01T19:01:34.764Z,5.62
2017-09-01T19:04:02.948Z,6.15
2017-09-01T19:09:34.328Z,6.35
2017-09-01T19:12:07.685Z,6.70
2017-09-01T19:14:40.281Z,6.47
2017-09-01T19:17:08.551Z,7.37
2017-09-01T19:19:39.172Z,5.55
2017-09-01T19:22:08.723Z,5.90
2017-09-01T19:24:40.784Z,6.43
2017-09-01T19:27:10.011Z,6.95
2017-09-01T19:29:40.099Z,7.05
2017-09-01T19:32:08.321Z,7.05
2017-09-01T19:34:39.787Z,6.85
2017-09-01T19:37:08.133Z,6.47
2017-09-01T19:39:36.415Z,7.05
2017-09-01T19:42:04.643Z,6.53
2017-09-01T19:44:33.510Z,6.62
2017-09-01T19:47:09.712Z,6.78
2017-09-01T19:49:38.048Z,7.32
2017-09-01T19:52:08.572Z,5.80
2017-09-01T19:54:38.701Z,6.45
2017-09-01T19:57:08.974Z,6.93
2017-09-01T19:59:38.805Z,6.65
2017-09-01T20:02:08.853Z,7.12
2017-09-01T20:04:37.036Z,5.80
2017-09-01T20:07:05.177Z,6.12
2017-09-01T20:09:33.479Z,6.70
2017-09-01T20:12:01.632Z,6.95
2017-09-01T20:14:29.765Z,6.80
2017-09-01T20:16:57.933Z,6.90
2017-09-01T20:19:26.061Z,6.22
2017-09-01T20:21:54.269Z,6.28
2017-09-01T20:24:22.402Z,6.50
2017-09-01T20:26:50.542Z,5.80
2017-09-01T20:29:18.728Z,6.82
2017-09-01T20:31:46.869Z,6.30
2017-09-01T20:34:15.038Z,7.15
2017-09-01T20:36:43.165Z,6.40
2017-09-01T20:39:11.474Z,6.78
2017-09-01T20:41:39.610Z,6.78
2017-09-01T20:44:07.737Z,7.32
2017-09-01T20:46:35.892Z,7.15
2017-09-01T20:49:04.053Z,7.68
2017-09-01T20:51:32.192Z,7.50
2017-09-01T20:54:00.350Z,8.63
2017-09-01T20:56:28.645Z,8.27
2017-09-01T20:58:58.021Z,8.20
2017-09-01T21:01:26.252Z,8.32
2017-09-01T21:03:54.429Z,8.73
2017-09-01T21:06:22.611Z,8.52
2017-09-01T21:08:51.892Z,9.10
2017-09-01T21:11:20.099Z,9.18
2017-09-01T21:13:48.409Z,9.43
2017-09-01T21:16:16.780Z,9.65
2017-09-01T21:18:44.957Z,8.77
2017-09-01T21:21:13.108Z,9.85
2017-09-01T21:23:41.245Z,9.88
2017-09-01T21:26:09.428Z,9.38
2017-09-01T21:28:37.584Z,8.50
2017-09-01T21:31:07.196Z,7.82
2017-09-01T21:33:35.835Z,8.98
2017-09-01T21:36:04.006Z,8.18
2017-09-01T21:38:32.150Z,8.50
2017-09-01T21:41:00.292Z,8.95
2017-09-01T21:43:28.470Z,8.60
2017-09-01T21:45:56.604Z,8.95
2017-09-01T21:48:24.745Z,8.93
2017-09-01T21:50:53.026Z,8.10
2017-09-01T21:53:21.181Z,8.27
2017-09-01T21:55:49.310Z,8.77
2017-09-01T21:58:17.477Z,8.45
2017-09-01T22:00:45.612Z,9.27
2017-09-01T22:03:13.897Z,8.65
2017-09-01T22:05:42.077Z,8.52
2017-09-01T22:08:10.215Z,9.00
2017-09-01T22:10:38.350Z,9.85
2017-09-01T22:13:06.542Z,9.63
2017-09-01T22:15:34.689Z,11.40
2017-09-01T22:18:02.841Z,10.50
2017-09-01T22:20:31.108Z,10.52
2017-09-01T22:22:59.252Z,11.02
2017-09-01T22:25:27.440Z,10.45
2017-09-01T22:27:55.577Z,10.80
2017-09-01T22:30:23.755Z,9.98
2017-09-01T22:32:51.936Z,9.70
2017-09-01T22:35:20.075Z,9.30
2017-09-01T22:37:48.384Z,10.25
2017-09-01T22:40:16.562Z,10.05
2017-09-01T22:42:44.722Z,10.02
2017-09-01T22:45:12.861Z,9.55
2017-09-01T22:47:41.028Z,10.38
2017-09-01T22:50:09.213Z,9.75
2017-09-01T22:52:37.352Z,10.02
2017-09-01T22:55:05.516Z,9.77
2017-09-01T22:57:33.657Z,9.75
2017-09-01T23:00:01.808Z,10.25
2017-09-01T23:02:29.974Z,10.20
2017-09-01T23:04:58.137Z,10.02
2017-09-01T23:07:26.420Z,10.98
2017-09-01T23:09:54.569Z,12.15
2017-09-01T23:12:22.772Z,12.68
2017-09-01T23:14:50.937Z,12.93
2017-09-01T23:17:19.116Z,12.98
2017-09-01T23:19:47.260Z,13.13
2017-09-01T23:22:15.413Z,11.52
2017-09-01T23:24:43.692Z,13.07
2017-09-01T23:27:11.840Z,11.27
2017-09-01T23:29:39.981Z,12.93
2017-09-01T23:32:08.177Z,11.20
2017-09-01T23:34:36.317Z,13.00
2017-09-01T23:37:04.499Z,11.35
2017-09-01T23:39:32.640Z,11.70
2017-09-01T23:42:00.800Z,12.23
2017-09-01T23:44:29.064Z,11.75
2017-09-01T23:46:57.200Z,11.52
2017-09-01T23:49:25.417Z,11.65
2017-09-01T23:51:53.565Z,11.80
2017-09-01T23:54:21.705Z,11.80
2017-09-01T23:56:49.869Z,10.70
2017-09-01T23:59:18.008Z,11.75
